createdAt,value
2023-03-11T00:00:44.343Z,-0.40
2023-03-11T00:03:15.484Z,-0.40
2023-03-11T00:05:45.923Z,-0.30
2023-03-11T00:08:18.337Z,-0.30
2023-03-11T00:10:48.350Z,-0.30
2023-03-11T00:13:16.841Z,-0.30
2023-03-11T00:15:48.504Z,-0.30
2023-03-11T00:18:17.127Z,-0.20
2023-03-11T00:20:46.965Z,-0.20
2023-03-11T00:23:15.285Z,-0.20
2023-03-11T00:25:45.028Z,-0.20
2023-03-11T00:28:13.693Z,-0.20
2023-03-11T00:30:43.890Z,-0.20
2023-03-11T00:33:14.410Z,-0.20
2023-03-11T00:35:42.300Z,-0.20
2023-03-11T00:38:16.602Z,-0.20
2023-03-11T00:40:47.397Z,-0.20
2023-03-11T00:43:15.873Z,-0.20
2023-03-11T00:45:43.393Z,-0.20
2023-03-11T00:48:11.836Z,-0.20
2023-03-11T00:50:39.226Z,-0.30
2023-03-11T00:53:06.611Z,-0.30
2023-03-11T00:55:36.472Z,-0.30
2023-03-11T00:58:10.232Z,-0.30
2023-03-11T01:00:56.918Z,-0.30
2023-03-11T01:03:24.432Z,-0.30
2023-03-11T01:05:52.295Z,-0.30
2023-03-11T01:08:19.679Z,-0.30
2023-03-11T01:10:46.826Z,-0.30
2023-03-11T01:13:14.126Z,-0.30
2023-03-11T01:15:41.429Z,-0.30
2023-03-11T01:18:08.687Z,-0.20
2023-03-11T01:20:38.401Z,-0.30
2023-03-11T01:23:06.636Z,-0.30
2023-03-11T01:25:34.178Z,-0.30
2023-03-11T01:28:01.609Z,-0.30
2023-03-11T01:30:30.896Z,-0.30
2023-03-11T01:32:59.079Z,-0.30
2023-03-11T01:35:29.341Z,-0.30
2023-03-11T01:37:57.464Z,-0.30
2023-03-11T01:40:30.484Z,-0.40
2023-03-11T01:43:01.043Z,-0.40
2023-03-11T01:45:33.736Z,-0.40
2023-03-11T01:48:02.236Z,-0.30
2023-03-11T01:50:36.982Z,-0.30
2023-03-11T01:53:06.148Z,-0.30
2023-03-11T01:55:34.564Z,-0.30
2023-03-11T01:58:12.157Z,-0.30
2023-03-11T02:00:39.793Z,-0.20
2023-03-11T02:03:16.126Z,-0.20
2023-03-11T02:05:43.614Z,-0.20
2023-03-11T02:08:11.722Z,-0.20
2023-03-11T02:10:42.679Z,-0.20
2023-03-11T02:13:11.153Z,-0.20
2023-03-11T02:15:40.057Z,-0.20
2023-03-11T02:18:08.436Z,-0.30
2023-03-11T02:20:57.548Z,-0.20
2023-03-11T02:23:35.098Z,-0.30
2023-03-11T02:26:14.433Z,-0.30
2023-03-11T02:28:43.125Z,-0.30
2023-03-11T02:31:11.285Z,-0.30
2023-03-11T02:33:38.685Z,-0.40
2023-03-11T02:36:06.721Z,-0.40
2023-03-11T02:38:34.099Z,-0.40
2023-03-11T02:41:02.920Z,-0.40
2023-03-11T02:43:42.245Z,-0.50
2023-03-11T02:46:12.899Z,-0.50
2023-03-11T02:48:40.649Z,-0.50
2023-03-11T02:51:08.185Z,-0.40
2023-03-11T02:53:48.149Z,-0.50
2023-03-11T02:56:15.985Z,-0.50
2023-03-11T02:58:43.328Z,-0.50
2023-03-11T03:01:11.216Z,-0.60
2023-03-11T03:03:40.281Z,-0.70
2023-03-11T03:06:07.883Z,-0.80
2023-03-11T03:08:35.248Z,-0.90
2023-03-11T03:11:03.345Z,-1.10
2023-03-11T03:13:32.343Z,-1.20
2023-03-11T03:16:00.578Z,-1.20
2023-03-11T03:18:28.026Z,-1.30
2023-03-11T03:20:55.657Z,-1.40
2023-03-11T03:23:23.323Z,-1.50
2023-03-11T03:25:50.894Z,-1.50
2023-03-11T03:28:18.639Z,-1.60
2023-03-11T03:30:46.906Z,-1.60
2023-03-11T03:33:14.949Z,-1.50
2023-03-11T03:35:45.334Z,-1.50
2023-03-11T03:38:35.142Z,-1.50
2023-03-11T03:41:02.680Z,-1.50
2023-03-11T03:43:30.618Z,-1.60
2023-03-11T03:46:03.883Z,-1.70
2023-03-11T03:48:38.363Z,-1.70
2023-03-11T03:51:11.022Z,-1.80
2023-03-11T03:53:43.840Z,-1.90
2023-03-11T03:56:17.111Z,-2.00
2023-03-11T03:58:45.085Z,-2.00
2023-03-11T04:01:13.174Z,-2.10
2023-03-11T04:03:41.804Z,-2.20
2023-03-11T04:06:24.447Z,-2.20
2023-03-11T04:08:57.932Z,-2.30
2023-03-11T04:11:32.564Z,-2.40
2023-03-11T04:14:02.623Z,-2.50
2023-03-11T04:16:31.528Z,-2.50
2023-03-11T04:19:06.327Z,-2.60
2023-03-11T04:21:35.085Z,-2.60
2023-03-11T04:24:03.380Z,-2.60
2023-03-11T04:26:34.956Z,-2.70
2023-03-11T04:29:03.387Z,-2.70
2023-03-11T04:31:34.762Z,-2.70
2023-03-11T04:34:05.592Z,-2.80
2023-03-11T04:36:33.094Z,-2.70
2023-03-11T04:39:00.878Z,-2.80
2023-03-11T04:41:31.377Z,-2.80
2023-03-11T04:44:00.532Z,-2.90
2023-03-11T04:46:27.999Z,-2.90
2023-03-11T04:48:55.566Z,-2.90
2023-03-11T04:51:23.031Z,-2.90
2023-03-11T04:53:50.381Z,-3.00
2023-03-11T04:56:17.883Z,-3.00
2023-03-11T04:58:45.267Z,-3.10
2023-03-11T05:01:12.669Z,-3.10
2023-03-11T05:03:39.887Z,-3.10
2023-03-11T05:06:07.967Z,-3.10
2023-03-11T05:08:35.351Z,-3.10
2023-03-11T05:11:02.982Z,-3.10
2023-03-11T05:13:30.368Z,-3.20
2023-03-11T05:15:58.095Z,-3.20
2023-03-11T05:18:25.912Z,-3.20
2023-03-11T05:20:54.000Z,-3.20
2023-03-11T05:23:25.377Z,-3.30
2023-03-11T05:25:54.404Z,-3.30
2023-03-11T05:28:21.689Z,-3.30
2023-03-11T05:30:52.329Z,-3.30
2023-03-11T05:33:20.193Z,-3.40
2023-03-11T05:35:48.434Z,-3.40
2023-03-11T05:38:16.243Z,-3.40
2023-03-11T05:40:44.630Z,-3.40
2023-03-11T05:43:12.076Z,-3.50
2023-03-11T05:45:41.832Z,-3.40
2023-03-11T05:48:08.997Z,-3.40
2023-03-11T05:50:38.486Z,-3.40
2023-03-11T05:53:06.243Z,-3.40
2023-03-11T05:55:33.441Z,-3.50
2023-03-11T05:58:01.315Z,-3.50
2023-03-11T06:00:29.595Z,-3.40
2023-03-11T06:02:59.344Z,-3.50
2023-03-11T06:05:26.901Z,-3.50
2023-03-11T06:07:55.638Z,-3.40
2023-03-11T06:10:23.629Z,-3.40
2023-03-11T06:12:50.790Z,-3.50
2023-03-11T06:15:23.483Z,-3.40
2023-03-11T06:17:51.668Z,-3.40
2023-03-11T06:20:19.331Z,-3.40
2023-03-11T06:22:49.742Z,-3.40
2023-03-11T06:25:17.325Z,-3.40
2023-03-11T06:27:51.623Z,-3.40
2023-03-11T06:30:20.647Z,-3.40
2023-03-11T06:32:58.470Z,-3.40
2023-03-11T06:35:25.798Z,-3.40
2023-03-11T06:37:53.156Z,-3.30
2023-03-11T06:40:20.497Z,-3.30
2023-03-11T06:42:47.920Z,-3.30
2023-03-11T06:45:15.674Z,-3.20
2023-03-11T06:47:44.247Z,-3.20
2023-03-11T06:50:12.020Z,-3.10
2023-03-11T06:52:39.720Z,-3.10
2023-03-11T06:55:09.275Z,-3.00
2023-03-11T06:57:37.394Z,-2.90
2023-03-11T07:00:12.589Z,-2.80
2023-03-11T07:02:42.978Z,-2.80
2023-03-11T07:05:12.592Z,-2.80
2023-03-11T07:07:40.530Z,-2.70
2023-03-11T07:10:08.598Z,-2.60
2023-03-11T07:12:36.358Z,-2.60
2023-03-11T07:15:05.552Z,-2.60
2023-03-11T07:17:36.013Z,-2.50
2023-03-11T07:20:04.781Z,-2.40
2023-03-11T07:22:32.066Z,-2.30
2023-03-11T07:24:59.460Z,-2.30
2023-03-11T07:27:28.552Z,-2.20
2023-03-11T07:29:55.837Z,-2.10
2023-03-11T07:32:23.161Z,-2.10
2023-03-11T07:34:50.404Z,-2.00
2023-03-11T07:37:17.819Z,-1.90
2023-03-11T07:39:45.203Z,-1.80
2023-03-11T07:42:12.365Z,-1.70
2023-03-11T07:44:39.838Z,-1.60
2023-03-11T07:47:07.805Z,-1.60
2023-03-11T07:49:37.023Z,-1.50
2023-03-11T07:52:04.812Z,-1.40
2023-03-11T07:54:32.141Z,-1.20
2023-03-11T07:56:59.497Z,-1.10
2023-03-11T07:59:26.703Z,-0.90
2023-03-11T08:01:53.895Z,-0.80
2023-03-11T08:04:21.193Z,-0.60
2023-03-11T08:06:48.775Z,-0.50
2023-03-11T08:09:15.981Z,-0.30
2023-03-11T08:11:43.467Z,-0.20
2023-03-11T08:14:10.910Z,0.00
2023-03-11T08:16:41.243Z,0.10
2023-03-11T08:19:13.225Z,0.30
2023-03-11T08:21:41.028Z,0.40
2023-03-11T08:24:11.331Z,0.60
2023-03-11T08:26:39.737Z,0.70
2023-03-11T08:29:07.623Z,0.90
2023-03-11T08:31:35.305Z,1.00
2023-03-11T08:34:08.261Z,1.10
2023-03-11T08:36:36.018Z,1.20
2023-03-11T08:39:04.151Z,1.30
2023-03-11T08:41:31.991Z,1.40
2023-03-11T08:43:59.992Z,1.50
2023-03-11T08:46:31.898Z,1.60
2023-03-11T08:49:01.338Z,1.70
2023-03-11T08:51:30.998Z,1.80
2023-03-11T08:54:00.359Z,1.90
2023-03-11T08:56:28.153Z,2.00
2023-03-11T08:58:55.527Z,2.20
2023-03-11T09:01:23.870Z,2.30
2023-03-11T09:03:51.839Z,2.30
2023-03-11T09:06:19.686Z,2.40
2023-03-11T09:08:48.004Z,2.50
2023-03-11T09:11:17.567Z,2.60
2023-03-11T09:13:45.296Z,2.70
2023-03-11T09:16:16.127Z,2.80
2023-03-11T09:18:43.868Z,2.90
2023-03-11T09:21:11.710Z,3.00
2023-03-11T09:23:41.580Z,3.10
2023-03-11T09:26:10.354Z,3.10
2023-03-11T09:28:37.892Z,3.30
2023-03-11T09:31:05.527Z,3.20
2023-03-11T09:33:38.513Z,3.40
2023-03-11T09:36:07.205Z,3.50
2023-03-11T09:38:34.796Z,3.60
2023-03-11T09:41:18.272Z,3.70
2023-03-11T09:44:36.006Z,3.70
2023-03-11T09:47:29.361Z,3.60
2023-03-11T09:50:33.213Z,3.60
2023-03-11T09:53:40.410Z,3.70
2023-03-11T09:56:10.642Z,3.70
2023-03-11T09:58:50.765Z,3.80
2023-03-11T10:01:27.650Z,3.90
2023-03-11T10:04:08.262Z,3.90
2023-03-11T10:06:36.614Z,3.90
2023-03-11T10:09:25.363Z,4.00
2023-03-11T10:12:15.247Z,4.10
2023-03-11T10:15:03.009Z,4.40
2023-03-11T10:17:59.289Z,4.50
2023-03-11T10:20:51.263Z,4.60
2023-03-11T10:23:58.238Z,4.60
2023-03-11T10:26:37.898Z,4.70
2023-03-11T10:29:28.353Z,4.70
2023-03-11T10:32:06.586Z,4.80
2023-03-11T10:34:43.327Z,4.90
2023-03-11T10:37:49.169Z,5.00
2023-03-11T10:40:37.424Z,5.10
2023-03-11T10:43:12.350Z,5.30
2023-03-11T10:45:44.802Z,5.30
2023-03-11T10:48:16.775Z,5.20
2023-03-11T10:51:04.657Z,5.30
2023-03-11T10:53:32.181Z,5.30
2023-03-11T10:56:00.370Z,5.30
2023-03-11T10:58:30.751Z,5.40
2023-03-11T11:01:16.729Z,5.40
2023-03-11T11:03:49.366Z,5.40
2023-03-11T11:06:26.762Z,5.40
2023-03-11T11:09:21.928Z,5.40
2023-03-11T11:12:13.118Z,5.50
2023-03-11T11:14:48.249Z,5.50
2023-03-11T11:17:20.037Z,5.60
2023-03-11T11:19:49.057Z,5.80
2023-03-11T11:22:20.143Z,5.80
2023-03-11T11:24:51.543Z,5.90
2023-03-11T11:27:28.611Z,6.10
2023-03-11T11:30:08.908Z,6.10
2023-03-11T11:32:37.974Z,6.20
2023-03-11T11:35:13.654Z,6.30
2023-03-11T11:37:48.503Z,6.30
2023-03-11T11:40:15.928Z,6.30
2023-03-11T11:42:56.124Z,6.50
2023-03-11T11:45:49.736Z,6.50
2023-03-11T11:48:25.562Z,6.60
2023-03-11T11:50:57.904Z,6.60
2023-03-11T11:53:32.964Z,6.60
2023-03-11T11:56:01.540Z,6.50
2023-03-11T11:58:30.660Z,6.50
2023-03-11T12:02:05.977Z,6.50
2023-03-11T12:04:43.050Z,6.60
2023-03-11T12:07:45.472Z,6.80
2023-03-11T12:10:39.906Z,6.80
2023-03-11T12:13:50.399Z,6.60
2023-03-11T12:16:43.185Z,6.50
2023-03-11T12:19:10.674Z,6.50
2023-03-11T12:22:23.908Z,6.50
2023-03-11T12:25:23.731Z,6.60
2023-03-11T12:28:14.711Z,6.50
2023-03-11T12:30:48.590Z,6.70
2023-03-11T12:33:48.709Z,6.50
2023-03-11T12:36:35.252Z,6.50
2023-03-11T12:39:06.095Z,6.50
2023-03-11T12:41:40.053Z,6.60
2023-03-11T12:44:31.235Z,6.70
2023-03-11T12:46:58.657Z,6.90
2023-03-11T12:49:49.621Z,7.00
2023-03-11T12:52:24.450Z,7.10
2023-03-11T12:55:01.184Z,6.90
2023-03-11T12:57:51.464Z,6.80
2023-03-11T13:00:46.479Z,6.80
2023-03-11T13:03:34.668Z,6.80
2023-03-11T13:06:29.422Z,7.00
2023-03-11T13:08:59.112Z,7.00
2023-03-11T13:11:31.571Z,7.10
2023-03-11T13:14:35.881Z,7.10
2023-03-11T13:17:27.377Z,6.90
2023-03-11T13:19:59.758Z,7.10
2023-03-11T13:22:58.697Z,7.10
2023-03-11T13:25:31.537Z,7.10
2023-03-11T13:28:28.042Z,6.90
2023-03-11T13:31:21.324Z,6.90
2023-03-11T13:33:53.853Z,7.00
2023-03-11T13:37:03.612Z,7.20
2023-03-11T13:40:12.924Z,7.20
2023-03-11T13:42:50.736Z,7.20
2023-03-11T13:45:38.652Z,7.20
2023-03-11T13:48:20.389Z,7.40
2023-03-11T13:51:12.222Z,7.60
2023-03-11T13:53:46.221Z,7.50
2023-03-11T13:56:22.542Z,7.60
2023-03-11T13:58:49.771Z,7.60
2023-03-11T14:01:18.949Z,7.30
2023-03-11T14:03:48.323Z,6.90
2023-03-11T14:06:19.961Z,6.50
2023-03-11T14:08:58.661Z,6.30
2023-03-11T14:11:31.991Z,6.10
2023-03-11T14:13:59.644Z,6.10
2023-03-11T14:16:35.947Z,5.90
2023-03-11T14:19:18.397Z,6.00
2023-03-11T14:21:48.493Z,6.50
2023-03-11T14:24:23.355Z,7.00
2023-03-11T14:26:56.137Z,7.10
2023-03-11T14:29:33.607Z,7.10
2023-03-11T14:32:01.849Z,7.30
2023-03-11T14:34:31.077Z,7.30
2023-03-11T14:37:00.975Z,7.50
2023-03-11T14:39:34.987Z,7.60
2023-03-11T14:42:18.905Z,7.50
2023-03-11T14:45:05.277Z,7.40
2023-03-11T14:47:40.781Z,7.30
2023-03-11T14:50:21.164Z,7.30
2023-03-11T14:53:24.143Z,7.30
2023-03-11T14:55:56.009Z,7.10
2023-03-11T14:58:35.770Z,6.60
2023-03-11T15:01:23.378Z,6.90
2023-03-11T15:04:01.686Z,7.00
2023-03-11T15:06:30.986Z,7.20
2023-03-11T15:09:13.274Z,7.50
2023-03-11T15:11:58.247Z,7.60
2023-03-11T15:14:32.294Z,7.50
2023-03-11T15:17:39.215Z,7.40
2023-03-11T15:20:34.370Z,7.20
2023-03-11T15:23:07.743Z,6.90
2023-03-11T15:25:38.378Z,6.70
2023-03-11T15:28:29.067Z,6.60
2023-03-11T15:31:22.233Z,6.50
2023-03-11T15:33:53.506Z,6.30
2023-03-11T15:36:35.165Z,6.10
2023-03-11T15:39:21.571Z,6.00
2023-03-11T15:42:07.208Z,5.90
2023-03-11T15:44:44.054Z,5.80
2023-03-11T15:47:20.917Z,5.70
2023-03-11T15:49:48.955Z,5.60
2023-03-11T15:52:19.360Z,5.60
2023-03-11T15:54:55.509Z,5.50
2023-03-11T15:57:27.739Z,5.40
2023-03-11T15:59:58.820Z,5.30
2023-03-11T16:02:30.290Z,5.20
2023-03-11T16:04:59.437Z,5.20
2023-03-11T16:07:39.015Z,5.10
2023-03-11T16:10:09.364Z,4.80
2023-03-11T16:12:37.145Z,4.40
2023-03-11T16:15:05.770Z,4.00
2023-03-11T16:17:48.580Z,3.60
2023-03-11T16:20:19.416Z,3.50
2023-03-11T16:22:49.601Z,3.50
2023-03-11T16:25:29.548Z,3.60
2023-03-11T16:27:57.572Z,3.60
2023-03-11T16:30:27.560Z,3.80
2023-03-11T16:32:54.919Z,3.80
2023-03-11T16:35:22.857Z,3.80
2023-03-11T16:37:50.875Z,3.80
2023-03-11T16:40:25.335Z,3.80
2023-03-11T16:43:01.954Z,3.80
2023-03-11T16:45:29.866Z,3.70
2023-03-11T16:47:57.258Z,3.70
2023-03-11T16:50:24.642Z,3.60
2023-03-11T16:52:54.076Z,3.60
2023-03-11T16:55:22.774Z,3.60
2023-03-11T16:57:50.088Z,3.60
2023-03-11T17:00:18.266Z,3.60
2023-03-11T17:02:45.481Z,3.60
2023-03-11T17:05:13.053Z,3.50
2023-03-11T17:07:40.570Z,3.60
2023-03-11T17:10:10.516Z,3.60
2023-03-11T17:12:38.093Z,3.60
2023-03-11T17:15:07.422Z,3.60
2023-03-11T17:17:34.683Z,3.60
2023-03-11T17:20:01.992Z,3.60
2023-03-11T17:22:29.079Z,3.50
2023-03-11T17:24:56.402Z,3.50
2023-03-11T17:27:23.779Z,3.50
2023-03-11T17:29:50.892Z,3.50
2023-03-11T17:32:18.093Z,3.40
2023-03-11T17:34:45.336Z,3.40
2023-03-11T17:37:14.225Z,3.40
2023-03-11T17:39:41.549Z,3.40
2023-03-11T17:42:09.041Z,3.30
2023-03-11T17:44:50.602Z,3.30
2023-03-11T17:47:19.940Z,3.30
2023-03-11T17:49:49.243Z,3.30
2023-03-11T17:52:16.522Z,3.20
2023-03-11T17:54:45.096Z,3.20
2023-03-11T17:57:12.846Z,3.20
2023-03-11T17:59:40.342Z,3.20
2023-03-11T18:02:10.104Z,3.20
2023-03-11T18:04:38.940Z,3.10
2023-03-11T18:07:06.226Z,3.10
2023-03-11T18:09:33.481Z,3.10
2023-03-11T18:12:02.581Z,3.00
2023-03-11T18:14:30.157Z,2.90
2023-03-11T18:16:57.707Z,2.90
2023-03-11T18:19:25.129Z,2.90
2023-03-11T18:21:52.703Z,2.80
2023-03-11T18:24:19.943Z,2.70
2023-03-11T18:26:47.170Z,2.70
2023-03-11T18:29:14.479Z,2.60
2023-03-11T18:31:41.769Z,2.50
2023-03-11T18:34:13.618Z,2.50
2023-03-11T18:36:42.208Z,2.40
2023-03-11T18:39:14.133Z,2.40
2023-03-11T18:41:42.797Z,2.30
2023-03-11T18:44:10.971Z,2.20
2023-03-11T18:46:38.333Z,2.20
2023-03-11T18:49:06.010Z,2.10
2023-03-11T18:51:33.397Z,2.10
2023-03-11T18:54:02.050Z,2.00
2023-03-11T18:56:32.858Z,1.90
2023-03-11T18:59:01.187Z,1.90
2023-03-11T19:01:29.086Z,1.80
2023-03-11T19:03:59.226Z,1.80
2023-03-11T19:06:28.454Z,1.70
2023-03-11T19:08:57.827Z,1.70
2023-03-11T19:11:25.869Z,1.70
2023-03-11T19:13:54.133Z,1.60
2023-03-11T19:16:24.906Z,1.60
2023-03-11T19:18:55.175Z,1.60
2023-03-11T19:21:23.317Z,1.50
2023-03-11T19:23:52.795Z,1.50
2023-03-11T19:26:21.030Z,1.50
2023-03-11T19:28:51.309Z,1.50
2023-03-11T19:31:18.673Z,1.50
2023-03-11T19:33:47.216Z,1.50
2023-03-11T19:36:14.739Z,1.40
2023-03-11T19:38:42.381Z,1.40
2023-03-11T19:41:15.152Z,1.40
2023-03-11T19:43:42.746Z,1.30
2023-03-11T19:46:14.294Z,1.30
2023-03-11T19:48:42.049Z,1.30
2023-03-11T19:51:11.968Z,1.20
2023-03-11T19:53:43.099Z,1.20
2023-03-11T19:56:10.628Z,1.20
2023-03-11T19:58:38.122Z,1.20
2023-03-11T20:01:05.433Z,1.10
2023-03-11T20:03:32.952Z,1.10
2023-03-11T20:06:08.882Z,1.00
2023-03-11T20:08:37.344Z,1.00
2023-03-11T20:11:06.202Z,1.00
2023-03-11T20:13:36.226Z,0.90
2023-03-11T20:16:18.608Z,0.90
2023-03-11T20:18:50.466Z,0.90
2023-03-11T20:21:18.820Z,0.80
2023-03-11T20:23:46.056Z,0.80
2023-03-11T20:26:15.784Z,0.70
2023-03-11T20:28:43.421Z,0.70
2023-03-11T20:31:17.646Z,0.60
2023-03-11T20:33:45.812Z,0.60
2023-03-11T20:36:24.538Z,0.60
2023-03-11T20:38:54.111Z,0.40
2023-03-11T20:41:26.035Z,0.30
2023-03-11T20:43:57.758Z,0.20
2023-03-11T20:46:25.388Z,0.10
2023-03-11T20:48:52.962Z,0.10
2023-03-11T20:51:21.401Z,0.10
2023-03-11T20:53:49.310Z,0.00
2023-03-11T20:56:23.849Z,-0.10
2023-03-11T20:58:52.730Z,-0.10
2023-03-11T21:01:24.788Z,-0.10
2023-03-11T21:03:58.620Z,-0.10
2023-03-11T21:06:30.740Z,-0.10
2023-03-11T21:09:01.966Z,-0.20
2023-03-11T21:11:29.515Z,-0.30
2023-03-11T21:13:57.420Z,-0.30
2023-03-11T21:16:26.953Z,-0.40
2023-03-11T21:18:54.684Z,-0.40
2023-03-11T21:21:22.299Z,-0.40
2023-03-11T21:23:50.209Z,-0.50
2023-03-11T21:26:18.743Z,-0.50
2023-03-11T21:28:47.093Z,-0.50
2023-03-11T21:31:19.952Z,-0.60
2023-03-11T21:33:48.556Z,-0.60
2023-03-11T21:36:16.553Z,-0.60
2023-03-11T21:38:44.374Z,-0.60
2023-03-11T21:41:16.109Z,-0.60
2023-03-11T21:43:44.151Z,-0.60
2023-03-11T21:46:15.479Z,-0.70
2023-03-11T21:48:43.495Z,-0.70
2023-03-11T21:51:10.873Z,-0.80
2023-03-11T21:53:38.263Z,-0.80
2023-03-11T21:56:06.314Z,-0.90
2023-03-11T21:58:34.408Z,-0.90
2023-03-11T22:01:02.666Z,-0.90
2023-03-11T22:03:30.898Z,-0.90
2023-03-11T22:06:00.120Z,-0.90
2023-03-11T22:08:27.889Z,-1.00
2023-03-11T22:10:55.682Z,-1.00
2023-03-11T22:13:23.994Z,-1.00
2023-03-11T22:15:51.924Z,-1.00
2023-03-11T22:18:19.414Z,-1.00
2023-03-11T22:20:46.888Z,-1.00
2023-03-11T22:23:14.378Z,-1.00
2023-03-11T22:25:42.019Z,-1.10
2023-03-11T22:28:12.929Z,-1.10
2023-03-11T22:30:40.301Z,-1.10
2023-03-11T22:33:08.353Z,-1.10
2023-03-11T22:35:35.954Z,-1.10
2023-03-11T22:38:03.300Z,-1.10
2023-03-11T22:40:30.474Z,-1.10
2023-03-11T22:42:57.734Z,-1.10
2023-03-11T22:45:25.156Z,-1.20
2023-03-11T22:47:54.160Z,-1.10
2023-03-11T22:50:21.824Z,-1.10
2023-03-11T22:52:49.192Z,-1.10
2023-03-11T22:55:16.561Z,-1.10
2023-03-11T22:57:44.087Z,-1.10
2023-03-11T23:00:20.897Z,-1.10
2023-03-11T23:02:53.144Z,-1.10
2023-03-11T23:05:21.293Z,-1.10
2023-03-11T23:07:49.183Z,-1.10
2023-03-11T23:10:20.464Z,-1.10
2023-03-11T23:12:49.080Z,-1.20
2023-03-11T23:15:18.884Z,-1.20
2023-03-11T23:17:46.139Z,-1.20
2023-03-11T23:20:15.705Z,-1.20
2023-03-11T23:22:44.090Z,-1.20
2023-03-11T23:25:15.235Z,-1.20
2023-03-11T23:27:45.006Z,-1.20
2023-03-11T23:30:15.280Z,-1.20
2023-03-11T23:32:43.269Z,-1.20
2023-03-11T23:35:12.292Z,-1.20
2023-03-11T23:37:39.846Z,-1.30
2023-03-11T23:40:10.532Z,-1.30
2023-03-11T23:42:37.771Z,-1.30
2023-03-11T23:45:07.242Z,-1.30
2023-03-11T23:47:34.583Z,-1.30
2023-03-11T23:50:02.044Z,-1.30
2023-03-11T23:52:29.204Z,-1.30
2023-03-11T23:54:56.616Z,-1.40
2023-03-11T23:57:23.908Z,-1.40
2023-03-11T23:59:51.182Z,-1.40
